Time;durP1;ratioP1;P1;durP2;ratioP2;P2;SDS_P1;SDS_P2;PMS_P1;PMS_P2;Temp;Humidity;BMP_temperature;BMP_pressure;BME280_temperature;BME280_humidity;BME280_pressure;Samples;Min_cycle;Max_cycle;Signal;HPM_P1;HPM_P2
2024/02/06 00:01:00;;;;;;;7.90;4.40;;;;;;;8.45;100.00;98408.30;109361;1252;63757;-81
2024/02/06 00:03:43;;;;;;;7.40;3.90;;;;;;;8.43;100.00;98411.44;109403;1252;58970;-81
2024/02/06 00:06:10;;;;;;;8.60;3.70;;;;;;;8.38;100.00;98415.47;109433;1253;59013;-83
2024/02/06 00:08:39;;;;;;;8.30;3.70;;;;;;;8.32;100.00;98406.61;109410;1252;66033;-82
2024/02/06 00:11:07;;;;;;;6.60;3.40;;;;;;;8.29;100.00;98409.64;109412;1252;60216;-80
2024/02/06 00:13:34;;;;;;;7.00;3.60;;;;;;;8.27;100.00;98406.42;109358;1252;65050;-81
2024/02/06 00:16:01;;;;;;;7.90;3.50;;;;;;;8.26;100.00;98402.27;109380;1253;59261;-80
2024/02/06 00:18:28;;;;;;;5.50;3.20;;;;;;;8.23;100.00;98401.93;109411;1253;59142;-80
2024/02/06 00:20:54;;;;;;;6.10;3.40;;;;;;;8.22;100.00;98404.31;109411;1253;67045;-80
2024/02/06 00:23:21;;;;;;;7.70;3.10;;;;;;;8.20;100.00;98404.80;109400;1252;60180;-81
2024/02/06 00:25:48;;;;;;;7.40;3.00;;;;;;;8.18;100.00;98408.29;109410;1253;64117;-81
2024/02/06 00:28:14;;;;;;;9.50;3.40;;;;;;;8.14;100.00;98404.46;109394;1253;58970;-78
2024/02/06 00:30:41;;;;;;;6.80;2.40;;;;;;;8.10;100.00;98403.66;109384;1253;58893;-81
2024/02/06 00:33:07;;;;;;;6.20;2.70;;;;;;;8.06;100.00;98402.31;109424;1253;66220;-80
2024/02/06 00:35:34;;;;;;;5.80;3.20;;;;;;;8.03;100.00;98400.27;109419;1252;60207;-79
2024/02/06 00:38:01;;;;;;;6.10;2.30;;;;;;;8.00;100.00;98401.00;109406;1253;65080;-80
2024/02/06 00:40:27;;;;;;;5.00;2.20;;;;;;;7.98;100.00;98400.41;109425;1252;58968;-80
2024/02/06 00:42:54;;;;;;;8.10;2.50;;;;;;;7.97;100.00;98400.64;109428;1252;59396;-82
2024/02/06 00:45:21;;;;;;;3.90;2.50;;;;;;;7.95;100.00;98400.26;109391;1252;66015;-81
2024/02/06 00:47:49;;;;;;;6.50;3.20;;;;;;;7.92;100.00;98395.45;109478;1252;61252;-80
2024/02/06 00:50:16;;;;;;;6.10;2.90;;;;;;;7.91;100.00;98397.48;109413;1252;64016;-80
2024/02/06 00:52:43;;;;;;;6.30;2.40;;;;;;;7.90;100.00;98397.34;109392;1252;59782;-81
2024/02/06 00:55:10;;;;;;;5.80;3.10;;;;;;;7.88;100.00;98390.61;109401;1252;59169;-81
2024/02/06 00:57:37;;;;;;;5.70;2.50;;;;;;;7.86;100.00;98394.80;109433;1252;66043;-81
2024/02/06 01:00:04;;;;;;;6.90;2.80;;;;;;;7.84;100.00;98395.47;109461;1252;60038;-81
2024/02/06 01:02:31;;;;;;;3.50;2.10;;;;;;;7.81;100.00;98397.94;109399;1252;63702;-81
2024/02/06 01:04:58;;;;;;;6.30;2.60;;;;;;;7.79;100.00;98397.18;109401;1252;59051;-80
2024/02/06 01:07:25;;;;;;;7.30;2.80;;;;;;;7.81;100.00;98393.56;109396;1252;59717;-82
2024/02/06 01:09:52;;;;;;;6.40;3.00;;;;;;;7.82;100.00;98390.12;109420;1252;66062;-79
2024/02/06 01:12:18;;;;;;;5.00;2.50;;;;;;;7.83;100.00;98386.15;109435;1252;61453;-80
2024/02/06 01:14:45;;;;;;;6.80;3.40;;;;;;;7.82;100.00;98384.79;109416;1252;62828;-81
2024/02/06 01:17:12;;;;;;;6.00;2.30;;;;;;;7.83;100.00;98383.38;109446;1252;59056;-81
2024/02/06 01:19:38;;;;;;;5.50;2.20;;;;;;;7.83;100.00;98383.90;109408;1252;58924;-80
2024/02/06 01:22:06;;;;;;;3.80;2.50;;;;;;;7.83;100.00;98377.17;109319;1252;66968;-80
2024/02/06 01:24:33;;;;;;;5.40;3.10;;;;;;;7.83;100.00;98378.95;109336;1252;59804;-80
2024/02/06 01:26:59;;;;;;;6.00;2.50;;;;;;;7.82;100.00;98377.58;109427;1252;64038;-80
2024/02/06 01:29:26;;;;;;;6.40;2.80;;;;;;;7.81;100.00;98370.73;109274;1252;59104;-81
2024/02/06 01:31:53;;;;;;;6.60;3.00;;;;;;;7.79;100.00;98372.09;109437;1252;58905;-79
2024/02/06 01:34:19;;;;;;;3.80;2.40;;;;;;;7.78;100.00;98368.14;109444;1252;67183;-81
2024/02/06 01:36:46;;;;;;;5.50;3.00;;;;;;;7.77;100.00;98364.27;109149;1252;59252;-81
2024/02/06 01:39:13;;;;;;;6.60;2.60;;;;;;;7.75;100.00;98360.85;109441;1252;64216;-80
2024/02/06 01:41:39;;;;;;;7.50;2.90;;;;;;;7.74;100.00;98361.14;109419;1252;59086;-81
2024/02/06 01:44:06;;;;;;;5.20;2.40;;;;;;;7.72;100.00;98359.50;109434;1252;58995;-82
2024/02/06 01:46:33;;;;;;;3.00;1.60;;;;;;;7.71;100.00;98352.65;109369;1252;66101;-81
2024/02/06 01:49:02;;;;;;;4.20;2.30;;;;;;;7.72;100.00;98349.04;109161;1252;60827;-80
2024/02/06 01:51:33;;;;;;;6.50;2.70;;;;;;;7.75;100.00;98346.73;109313;1252;65088;-81
2024/02/06 01:54:01;;;;;;;8.20;2.50;;;;;;;7.76;100.00;98348.25;109287;1253;59066;-81
2024/02/06 01:56:28;;;;;;;6.50;2.80;;;;;;;7.79;100.00;98343.83;109443;1252;59020;-81
2024/02/06 01:58:55;;;;;;;4.40;2.20;;;;;;;7.80;100.00;98343.74;109418;1252;67007;-80
2024/02/06 02:01:22;;;;;;;5.60;2.50;;;;;;;7.82;100.00;98340.10;109444;1252;60153;-80
2024/02/06 02:03:52;;;;;;;8.80;2.50;;;;;;;7.86;100.00;98340.70;109405;1252;65068;-80
2024/02/06 02:06:20;;;;;;;;;;;;;;;7.88;100.00;98340.20;109438;1252;59021;-80
2024/02/06 02:08:50;;;;;;;7.60;3.30;;;;;;;7.89;100.00;98338.36;109399;1252;59161;-81
2024/02/06 02:11:17;;;;;;;5.30;2.30;;;;;;;7.91;100.00;98335.26;109297;1253;66020;-80
2024/02/06 02:13:45;;;;;;;5.80;2.60;;;;;;;7.90;100.00;98330.68;109500;1252;59923;-82
2024/02/06 02:16:12;;;;;;;5.80;2.30;;;;;;;7.88;100.00;98334.87;109460;1252;65061;-80
2024/02/06 02:18:38;;;;;;;4.90;2.70;;;;;;;7.89;100.00;98333.42;109446;1252;58976;-80
2024/02/06 02:21:08;;;;;;;4.60;2.60;;;;;;;7.88;100.00;98336.13;109447;1252;59162;-81
2024/02/06 02:23:40;;;;;;;4.90;2.40;;;;;;;7.89;100.00;98335.40;109456;1252;65939;-82
2024/02/06 02:26:09;;;;;;;5.40;2.20;;;;;;;7.89;100.00;98336.08;109239;1253;60304;-79
2024/02/06 02:28:37;;;;;;;5.00;2.10;;;;;;;7.90;100.00;98338.15;109156;1252;65208;-82
2024/02/06 02:31:08;;;;;;;6.70;3.00;;;;;;;7.88;100.00;98340.77;109416;1252;59103;-80
2024/02/06 02:33:36;;;;;;;7.60;2.60;;;;;;;7.85;100.00;98336.73;109462;1252;59029;-80
2024/02/06 02:36:06;;;;;;;3.50;2.50;;;;;;;7.82;100.00;98334.44;109335;1252;67474;-79
2024/02/06 02:38:34;;;;;;;6.30;2.00;;;;;;;7.79;100.00;98333.92;109312;1252;60108;-80
2024/02/06 02:41:00;;;;;;;7.50;2.30;;;;;;;7.75;100.00;98332.98;109307;1252;63615;-81
2024/02/06 02:43:27;;;;;;;5.50;2.40;;;;;;;7.71;100.00;98333.90;109416;1252;59038;-81
2024/02/06 02:45:54;;;;;;;4.80;2.60;;;;;;;7.68;100.00;98331.77;109460;1252;59287;-79
2024/02/06 02:48:20;;;;;;;5.40;2.40;;;;;;;7.67;100.00;98334.02;109457;1252;67220;-80
2024/02/06 02:50:47;;;;;;;4.50;2.30;;;;;;;7.64;100.00;98334.17;109435;1253;61132;-82
2024/02/06 02:53:14;;;;;;;5.50;2.70;;;;;;;7.61;100.00;98333.66;109391;1252;73913;-78
2024/02/06 02:55:40;;;;;;;5.80;2.50;;;;;;;7.59;100.00;98330.48;109398;1252;58929;-80
2024/02/06 02:58:07;;;;;;;6.20;2.00;;;;;;;7.58;100.00;98336.70;109452;1252;58983;-80
2024/02/06 03:00:34;;;;;;;7.60;3.40;;;;;;;7.58;100.00;98333.50;109458;1252;66183;-80
2024/02/06 03:03:01;;;;;;;6.60;3.40;;;;;;;7.58;100.00;98331.44;109435;1253;60078;-80
2024/02/06 03:05:28;;;;;;;6.40;2.30;;;;;;;7.56;100.00;98327.98;109436;1252;64085;-80
2024/02/06 03:07:55;;;;;;;6.20;2.30;;;;;;;7.55;100.00;98323.84;109423;1252;59144;-81
2024/02/06 03:10:21;;;;;;;4.80;2.10;;;;;;;7.55;100.00;98323.87;109411;1252;58989;-81
2024/02/06 03:12:48;;;;;;;6.10;2.20;;;;;;;7.53;100.00;98322.59;109426;1252;66025;-81
2024/02/06 03:15:15;;;;;;;5.40;2.20;;;;;;;7.51;100.00;98322.85;109474;1252;60019;-78
2024/02/06 03:17:41;;;;;;;5.90;2.60;;;;;;;7.51;100.00;98321.62;109402;1252;65166;-81
2024/02/06 03:20:09;;;;;;;4.20;2.60;;;;;;;7.51;100.00;98318.84;109396;1252;59094;-81
2024/02/06 03:22:36;;;;;;;4.70;2.30;;;;;;;7.49;100.00;98317.34;109468;1252;59504;-79
2024/02/06 03:25:04;;;;;;;5.80;2.00;;;;;;;7.48;100.00;98316.66;109453;1252;66146;-79
2024/02/06 03:27:30;;;;;;;5.70;2.20;;;;;;;7.47;100.00;98317.41;109445;1252;60014;-80
2024/02/06 03:29:57;;;;;;;3.70;2.20;;;;;;;7.45;100.00;98317.72;109408;1252;65211;-80
2024/02/06 03:32:24;;;;;;;6.30;3.00;;;;;;;7.45;100.00;98316.52;109290;1252;59019;-80
2024/02/06 03:34:51;;;;;;;7.10;2.30;;;;;;;7.46;100.00;98320.52;109495;1252;59093;-81
2024/02/06 03:37:18;;;;;;;4.60;2.20;;;;;;;7.47;100.00;98321.67;109436;1255;66007;-81
2024/02/06 03:39:44;;;;;;;4.40;2.30;;;;;;;7.46;100.00;98323.16;109429;1252;60362;-80
2024/02/06 03:42:11;;;;;;;6.30;2.00;;;;;;;7.44;100.00;98323.45;109455;1252;64111;-81
2024/02/06 03:44:37;;;;;;;6.20;3.00;;;;;;;7.45;100.00;98323.94;109416;1252;59015;-79
2024/02/06 03:47:04;;;;;;;4.70;3.10;;;;;;;7.45;100.00;98323.56;109451;1252;59839;-80
2024/02/06 03:49:31;;;;;;;6.40;2.40;;;;;;;7.42;100.00;98325.52;109270;1254;65992;-80
2024/02/06 03:51:57;;;;;;;4.90;2.30;;;;;;;7.40;100.00;98328.50;109460;1253;60014;-80
2024/02/06 03:54:24;;;;;;;4.90;2.40;;;;;;;7.39;100.00;98329.27;109466;1252;65064;-81
2024/02/06 03:56:51;;;;;;;6.00;2.40;;;;;;;7.35;100.00;98325.46;109145;1253;59007;-80
2024/02/06 03:59:18;;;;;;;7.60;2.90;;;;;;;7.34;100.00;98326.43;109445;1252;59410;-79
2024/02/06 04:01:45;;;;;;;7.80;3.20;;;;;;;7.33;100.00;98328.40;109149;1253;64775;-80
2024/02/06 04:04:11;;;;;;;6.00;2.60;;;;;;;7.30;100.00;98326.19;109240;1253;60319;-79
2024/02/06 04:06:38;;;;;;;9.60;4.20;;;;;;;7.27;100.00;98326.67;109438;1252;64109;-83
2024/02/06 04:09:06;;;;;;;11.00;3.70;;;;;;;7.26;100.00;98330.45;109428;1253;58971;-79
2024/02/06 04:11:33;;;;;;;8.80;3.00;;;;;;;7.25;100.00;98330.49;109414;1255;58928;-79
2024/02/06 04:13:59;;;;;;;9.60;3.40;;;;;;;7.22;100.00;98335.67;109441;1253;67160;-80
2024/02/06 04:16:26;;;;;;;4.80;3.10;;;;;;;7.20;100.00;98336.50;109463;1252;59988;-79
2024/02/06 04:18:52;;;;;;;7.50;3.00;;;;;;;7.19;100.00;98337.27;109416;1253;64789;-81
2024/02/06 04:21:19;;;;;;;9.60;3.20;;;;;;;7.20;100.00;98333.88;109434;1253;59131;-81
2024/02/06 04:23:46;;;;;;;8.00;3.00;;;;;;;7.19;100.00;98335.84;109440;1253;58981;-82
2024/02/06 04:26:13;;;;;;;6.70;2.90;;;;;;;7.18;100.00;98334.48;109457;1253;66981;-80
2024/02/06 04:28:40;;;;;;;7.00;2.90;;;;;;;7.18;100.00;98337.16;109430;1253;61353;-81
2024/02/06 04:31:06;;;;;;;6.40;4.00;;;;;;;7.17;100.00;98340.08;109451;1253;64034;-79
2024/02/06 04:33:33;;;;;;;7.20;3.30;;;;;;;7.16;100.00;98337.44;109467;1253;59074;-80
2024/02/06 04:35:59;;;;;;;7.60;2.60;;;;;;;7.15;100.00;98341.60;109429;1254;59069;-80
2024/02/06 04:38:26;;;;;;;5.30;3.10;;;;;;;7.15;100.00;98343.35;109458;1252;66147;-82
2024/02/06 04:40:53;;;;;;;5.30;3.10;;;;;;;7.15;100.00;98348.63;109195;1253;60115;-80
2024/02/06 04:43:20;;;;;;;5.40;2.40;;;;;;;7.16;100.00;98347.90;109064;1253;64398;-80
2024/02/06 04:45:46;;;;;;;7.10;3.00;;;;;;;7.17;100.00;98347.64;109452;1253;59010;-80
2024/02/06 04:48:13;;;;;;;7.30;2.60;;;;;;;7.17;100.00;98346.92;109426;1253;59151;-80
2024/02/06 04:50:39;;;;;;;7.20;3.40;;;;;;;7.18;100.00;98349.38;109428;1257;66007;-79
2024/02/06 04:53:06;;;;;;;4.30;2.80;;;;;;;7.14;100.00;98348.02;109454;1253;60074;-79
2024/02/06 04:55:33;;;;;;;6.40;2.80;;;;;;;7.11;100.00;98346.27;109457;1253;64998;-79
2024/02/06 04:58:00;;;;;;;5.20;2.70;;;;;;;7.07;100.00;98345.98;109423;1253;59058;-79
2024/02/06 05:00:27;;;;;;;7.30;3.20;;;;;;;7.03;100.00;98342.84;109235;1253;59003;-80
2024/02/06 05:02:53;;;;;;;10.20;2.60;;;;;;;7.00;100.00;98343.73;109451;1252;65818;-80
2024/02/06 05:05:20;;;;;;;9.70;3.50;;;;;;;6.99;100.00;98344.69;109467;1253;60845;-80
2024/02/06 05:07:47;;;;;;;6.90;2.60;;;;;;;6.97;100.00;98351.21;109243;1253;65254;-79
2024/02/06 05:10:14;;;;;;;10.70;3.50;;;;;;;6.92;100.00;98351.48;109410;1253;59058;-80
2024/02/06 05:12:40;;;;;;;6.00;3.00;;;;;;;6.88;100.00;98352.81;109436;1253;59061;-80
2024/02/06 05:15:08;;;;;;;9.40;3.70;;;;;;;6.81;100.00;98350.97;109447;1252;66912;-79
2024/02/06 05:17:34;;;;;;;9.90;3.40;;;;;;;6.72;100.00;98353.80;109446;1253;61138;-80
2024/02/06 05:20:04;;;;;;;6.80;3.20;;;;;;;6.64;100.00;98353.76;109463;1252;65098;-80
2024/02/06 05:22:31;;;;;;;8.30;3.80;;;;;;;6.56;100.00;98361.15;109124;1253;59018;-79
2024/02/06 05:24:57;;;;;;;15.10;3.90;;;;;;;6.48;100.00;98356.48;109435;1253;59037;-80
2024/02/06 05:27:24;;;;;;;11.60;4.70;;;;;;;6.42;100.00;98354.61;109460;1252;66156;-80
2024/02/06 05:29:51;;;;;;;10.50;4.20;;;;;;;6.35;100.00;98354.11;109432;1253;60176;-80
2024/02/06 05:32:17;;;;;;;11.90;4.30;;;;;;;6.30;100.00;98353.17;109235;1253;64635;-80
2024/02/06 05:34:44;;;;;;;7.50;3.60;;;;;;;6.26;100.00;98352.86;109435;1252;59103;-81
2024/02/06 05:37:10;;;;;;;6.60;3.10;;;;;;;6.25;100.00;98356.33;109418;1252;61922;-80
2024/02/06 05:39:37;;;;;;;4.50;3.20;;;;;;;6.23;100.00;98360.30;109461;1252;67179;-80
2024/02/06 05:42:03;;;;;;;7.70;3.10;;;;;;;6.22;100.00;98357.21;109392;1253;61100;-81
2024/02/06 05:44:30;;;;;;;6.60;2.90;;;;;;;6.22;100.00;98356.46;109121;1252;62790;-80
2024/02/06 05:46:57;;;;;;;5.80;2.90;;;;;;;6.23;100.00;98358.16;109418;1252;59010;-79
2024/02/06 05:49:24;;;;;;;7.90;3.20;;;;;;;6.22;100.00;98357.16;109449;1253;58953;-80
2024/02/06 05:51:50;;;;;;;9.70;2.70;;;;;;;6.21;100.00;98360.42;109434;1253;65978;-80
2024/02/06 05:54:17;;;;;;;6.30;3.40;;;;;;;6.19;100.00;98360.88;109439;1252;60168;-80
2024/02/06 05:56:44;;;;;;;8.80;4.30;;;;;;;6.19;100.00;98358.80;109474;1253;62645;-81
2024/02/06 05:59:10;;;;;;;8.40;3.90;;;;;;;6.14;100.00;98362.06;109446;1252;59056;-80
2024/02/06 06:01:37;;;;;;;9.30;3.80;;;;;;;6.11;100.00;98359.59;109447;1252;59157;-81
2024/02/06 06:04:03;;;;;;;11.80;4.10;;;;;;;6.09;100.00;98361.49;109450;1252;67174;-79
2024/02/06 06:06:30;;;;;;;8.40;4.10;;;;;;;6.08;100.00;98360.49;109461;1252;61051;-81
2024/02/06 06:08:57;;;;;;;6.50;3.80;;;;;;;6.09;100.00;98365.33;109365;1253;65024;-79
2024/02/06 06:11:23;;;;;;;9.80;3.90;;;;;;;6.12;100.00;98363.43;109432;1252;58911;-80
2024/02/06 06:13:50;;;;;;;8.00;3.40;;;;;;;6.15;100.00;98361.29;109493;1252;58934;-80
2024/02/06 06:16:16;;;;;;;9.90;3.90;;;;;;;6.19;100.00;98367.09;109420;1253;67244;-81
2024/02/06 06:18:43;;;;;;;8.10;4.00;;;;;;;6.24;100.00;98367.67;109488;1252;61154;-80
2024/02/06 06:21:10;;;;;;;9.50;4.60;;;;;;;6.28;100.00;98369.02;109417;1252;65142;-81
2024/02/06 06:23:36;;;;;;;11.40;4.40;;;;;;;6.33;100.00;98374.01;109413;1252;58958;-80
2024/02/06 06:26:06;;;;;;;8.70;4.50;;;;;;;6.38;100.00;98371.58;109461;1252;59008;-80
2024/02/06 06:28:33;;;;;;;9.80;4.60;;;;;;;6.43;100.00;98367.58;109435;1252;66968;-79
2024/02/06 06:31:00;;;;;;;8.50;4.70;;;;;;;6.49;100.00;98368.46;109415;1252;61204;-79
2024/02/06 06:33:26;;;;;;;9.00;4.20;;;;;;;6.54;100.00;98370.80;109231;1252;65044;-77
2024/02/06 06:35:53;;;;;;;11.20;4.50;;;;;;;6.59;100.00;98370.13;109393;1252;58963;-79
2024/02/06 06:38:20;;;;;;;11.30;4.60;;;;;;;6.64;100.00;98371.79;109422;1253;59102;-79
2024/02/06 06:40:47;;;;;;;13.60;4.00;;;;;;;6.68;100.00;98371.16;109445;1252;67086;-79
2024/02/06 06:43:13;;;;;;;10.00;3.90;;;;;;;6.72;100.00;98376.41;109178;1253;60401;-79
2024/02/06 06:45:40;;;;;;;7.70;3.30;;;;;;;6.76;100.00;98380.55;109421;1252;65175;-79
2024/02/06 06:48:07;;;;;;;6.10;3.60;;;;;;;6.81;100.00;98380.80;109436;1252;58997;-79
2024/02/06 06:50:34;;;;;;;7.70;3.70;;;;;;;6.86;100.00;98384.75;109431;1252;59017;-79
2024/02/06 06:53:00;;;;;;;9.50;3.30;;;;;;;6.89;100.00;98381.92;109460;1252;66704;-80
2024/02/06 06:55:27;;;;;;;7.90;3.30;;;;;;;6.92;100.00;98383.84;109493;1252;60116;-80
2024/02/06 06:57:54;;;;;;;10.70;4.00;;;;;;;6.95;100.00;98385.09;109581;1252;65229;-76
2024/02/06 07:00:20;;;;;;;7.30;4.10;;;;;;;6.98;100.00;98385.42;109438;1252;59108;-75
2024/02/06 07:02:47;;;;;;;10.60;3.90;;;;;;;7.01;100.00;98389.27;109438;1252;59029;-76
2024/02/06 07:05:14;;;;;;;7.00;3.40;;;;;;;7.05;100.00;98387.43;109242;1252;66874;-73
2024/02/06 07:07:41;;;;;;;11.60;4.20;;;;;;;7.10;100.00;98388.55;109443;1252;60814;-74
2024/02/06 07:10:07;;;;;;;9.20;3.50;;;;;;;7.14;100.00;98385.98;109406;1252;64053;-74
2024/02/06 07:12:34;;;;;;;12.90;4.30;;;;;;;7.18;100.00;98388.73;109430;1252;59314;-73
2024/02/06 07:15:03;;;;;;;13.30;4.60;;;;;;;7.21;100.00;98391.54;109443;1252;59669;-73
2024/02/06 07:17:30;;;;;;;11.30;3.90;;;;;;;7.23;100.00;98389.64;109465;1252;65991;-75
2024/02/06 07:19:58;;;;;;;13.30;4.40;;;;;;;7.27;100.00;98392.05;109214;1252;60073;-74
2024/02/06 07:22:24;;;;;;;7.10;3.90;;;;;;;7.31;100.00;98392.39;109476;1252;65306;-75
2024/02/06 07:24:51;;;;;;;9.80;4.10;;;;;;;7.34;100.00;98391.64;109464;1252;58990;-74
2024/02/06 07:27:18;;;;;;;9.60;3.70;;;;;;;7.38;100.00;98396.36;109452;1252;58960;-75
2024/02/06 07:29:45;;;;;;;10.30;4.10;;;;;;;7.41;100.00;98397.55;109379;1253;65991;-74
2024/02/06 07:32:11;;;;;;;8.20;3.60;;;;;;;7.42;100.00;98398.68;109421;1253;60864;-74
2024/02/06 07:34:38;;;;;;;7.90;3.80;;;;;;;7.44;100.00;98397.52;109433;1252;65033;-75
2024/02/06 07:37:04;;;;;;;6.60;3.50;;;;;;;7.46;100.00;98401.95;109425;1252;58991;-74
2024/02/06 07:39:31;;;;;;;7.20;3.60;;;;;;;7.48;100.00;98403.81;109439;1252;59077;-74
2024/02/06 07:41:58;;;;;;;7.90;4.10;;;;;;;7.50;100.00;98402.80;109430;1252;66122;-76
2024/02/06 07:44:25;;;;;;;10.00;3.30;;;;;;;7.52;100.00;98402.49;109164;1252;60049;-75
2024/02/06 07:46:51;;;;;;;9.00;3.60;;;;;;;7.54;100.00;98405.89;109429;1252;65059;-75
2024/02/06 07:49:18;;;;;;;8.20;3.50;;;;;;;7.56;100.00;98406.99;109405;1256;59076;-74
2024/02/06 07:51:44;;;;;;;6.00;3.40;;;;;;;7.58;100.00;98412.05;109451;1253;59082;-75
2024/02/06 07:54:11;;;;;;;6.20;3.20;;;;;;;7.59;100.00;98416.22;109482;1252;67137;-75
2024/02/06 07:56:38;;;;;;;8.60;3.90;;;;;;;7.60;100.00;98418.27;109440;1254;61047;-74
2024/02/06 07:59:04;;;;;;;9.80;3.80;;;;;;;7.60;100.00;98417.52;109390;1252;64041;-76
2024/02/06 08:01:31;;;;;;;9.00;4.70;;;;;;;7.61;100.00;98415.17;109392;1256;58989;-75
2024/02/06 08:03:57;;;;;;;8.90;3.30;;;;;;;7.62;100.00;98418.98;109404;1253;58953;-74
2024/02/06 08:06:24;;;;;;;7.30;3.20;;;;;;;7.64;100.00;98414.45;109469;1252;67367;-75
2024/02/06 08:08:51;;;;;;;7.50;3.70;;;;;;;7.65;100.00;98417.20;109417;1253;60977;-76
2024/02/06 08:11:17;;;;;;;9.40;3.80;;;;;;;7.68;100.00;98420.05;109465;1252;65217;-74
2024/02/06 08:13:44;;;;;;;8.20;2.90;;;;;;;7.70;100.00;98420.78;109393;1253;59059;-75
2024/02/06 08:16:10;;;;;;;9.30;3.70;;;;;;;7.71;100.00;98418.08;109472;1253;59055;-75
2024/02/06 08:18:37;;;;;;;8.50;4.70;;;;;;;7.72;100.00;98418.39;109425;1252;66036;-75
2024/02/06 08:21:05;;;;;;;9.40;3.50;;;;;;;7.71;100.00;98414.55;109483;1252;61049;-74
2024/02/06 08:23:32;;;;;;;10.30;3.70;;;;;;;7.71;100.00;98414.70;109412;1253;64170;-75
2024/02/06 08:25:59;;;;;;;8.00;3.90;;;;;;;7.72;100.00;98419.98;109423;1252;59013;-75
2024/02/06 08:28:25;;;;;;;10.30;4.10;;;;;;;7.71;100.00;98417.71;109446;1253;59122;-75
2024/02/06 08:30:52;;;;;;;8.70;4.60;;;;;;;7.73;100.00;98420.47;109449;1252;67306;-76
2024/02/06 08:33:19;;;;;;;10.60;4.00;;;;;;;7.74;100.00;98421.06;109117;1259;60826;-76
2024/02/06 08:35:51;;;;;;;9.00;3.70;;;;;;;7.76;100.00;98421.29;109408;1253;64788;-74
2024/02/06 08:38:18;;;;;;;8.60;4.00;;;;;;;7.78;100.00;98417.99;109451;1253;59107;-75
2024/02/06 08:40:45;;;;;;;7.90;3.70;;;;;;;7.79;100.00;98423.55;109453;1253;58999;-75
2024/02/06 08:43:12;;;;;;;9.00;4.10;;;;;;;7.82;100.00;98420.39;109425;1253;65946;-75
2024/02/06 08:45:38;;;;;;;9.10;4.10;;;;;;;7.84;100.00;98420.42;109463;1253;60110;-74
2024/02/06 08:48:05;;;;;;;8.30;3.90;;;;;;;7.88;100.00;98421.73;109456;1253;64742;-75
2024/02/06 08:50:33;;;;;;;8.90;3.80;;;;;;;7.94;100.00;98419.77;109121;1260;59072;-74
2024/02/06 08:53:00;;;;;;;8.80;4.60;;;;;;;7.98;100.00;98418.44;109468;1255;59255;-75
2024/02/06 08:55:26;;;;;;;6.80;3.90;;;;;;;8.03;100.00;98416.16;109469;1253;64743;-75
2024/02/06 08:57:53;;;;;;;7.30;3.90;;;;;;;8.09;100.00;98416.33;109429;1253;60823;-76
2024/02/06 09:00:21;;;;;;;9.50;4.10;;;;;;;8.13;100.00;98412.29;109413;1254;65103;-75
2024/02/06 09:02:47;;;;;;;8.00;3.50;;;;;;;8.17;100.00;98415.05;109438;1253;59166;-74
2024/02/06 09:05:15;;;;;;;10.40;3.90;;;;;;;8.17;100.00;98421.07;109460;1254;59210;-75
2024/02/06 09:07:42;;;;;;;9.50;4.10;;;;;;;8.14;100.00;98418.98;109428;1253;66041;-75
2024/02/06 09:10:08;;;;;;;11.80;4.20;;;;;;;8.12;100.00;98424.98;109199;1254;59081;-75
2024/02/06 09:12:35;;;;;;;7.60;3.30;;;;;;;8.10;100.00;98431.80;109445;1253;63886;-75
2024/02/06 09:15:02;;;;;;;6.90;3.50;;;;;;;8.09;100.00;98431.16;109140;1253;59011;-75
2024/02/06 09:17:29;;;;;;;8.20;3.50;;;;;;;8.09;100.00;98435.58;109406;1253;58874;-75
2024/02/06 09:19:55;;;;;;;7.40;4.00;;;;;;;8.12;100.00;98429.21;109458;1253;66233;-74
2024/02/06 09:22:22;;;;;;;7.30;3.60;;;;;;;8.17;100.00;98433.11;109417;1256;61017;-76
2024/02/06 09:24:49;;;;;;;7.90;3.40;;;;;;;8.22;100.00;98435.42;109383;1253;64378;-75
2024/02/06 09:27:17;;;;;;;10.90;4.10;;;;;;;8.29;100.00;98436.19;109367;1253;58972;-75
2024/02/06 09:29:43;;;;;;;7.70;4.10;;;;;;;8.38;100.00;98439.55;109404;1253;59073;-74
2024/02/06 09:32:10;;;;;;;10.20;4.00;;;;;;;8.45;100.00;98437.69;109135;1255;66813;-75
2024/02/06 09:34:36;;;;;;;7.70;3.60;;;;;;;8.50;100.00;98436.09;109459;1253;60166;-75
2024/02/06 09:37:03;;;;;;;7.40;3.80;;;;;;;8.52;100.00;98435.20;109226;1254;64043;-74
2024/02/06 09:39:29;;;;;;;9.50;3.80;;;;;;;8.54;100.00;98436.51;109401;1254;58969;-75
2024/02/06 09:42:01;;;;;;;10.30;4.00;;;;;;;8.62;100.00;98435.67;109407;1255;58959;-75
2024/02/06 09:44:31;;;;;;;9.30;3.80;;;;;;;8.72;100.00;98436.72;109302;1253;66823;-74
2024/02/06 09:47:01;;;;;;;6.00;4.10;;;;;;;8.80;100.00;98436.16;109393;1254;60041;-76
2024/02/06 09:49:28;;;;;;;7.40;3.70;;;;;;;8.88;100.00;98429.46;109430;1253;64166;-73
2024/02/06 09:51:55;;;;;;;8.90;4.40;;;;;;;8.90;100.00;98425.04;109395;1254;59206;-75
2024/02/06 09:54:25;;;;;;;9.30;3.90;;;;;;;8.89;100.00;98425.27;109448;1253;59201;-75
2024/02/06 09:56:56;;;;;;;10.60;3.90;;;;;;;8.92;100.00;98432.02;109144;1254;65931;-74
2024/02/06 09:59:27;;;;;;;14.00;4.30;;;;;;;8.99;100.00;98431.34;109095;1253;60075;-74
2024/02/06 10:01:54;;;;;;;8.10;4.30;;;;;;;9.06;100.00;98429.58;109397;1254;65091;-74
2024/02/06 10:04:29;;;;;;;10.60;4.80;;;;;;;9.14;100.00;98426.55;109397;1252;59284;-75
2024/02/06 10:06:57;;;;;;;9.20;4.40;;;;;;;9.22;100.00;98427.04;109433;1254;59045;-74
2024/02/06 10:09:27;;;;;;;10.70;4.90;;;;;;;9.26;100.00;98431.76;109149;1259;66943;-74
2024/02/06 10:11:54;;;;;;;6.90;3.90;;;;;;;9.29;100.00;98424.77;109088;1253;60633;-74
2024/02/06 10:14:21;;;;;;;8.70;3.80;;;;;;;9.34;100.00;98426.71;109396;1254;72941;-74
2024/02/06 10:16:47;;;;;;;9.50;4.80;;;;;;;9.39;100.00;98428.30;109432;1253;59826;-74
2024/02/06 10:19:14;;;;;;;10.60;4.30;;;;;;;9.39;100.00;98425.46;109392;1254;59501;-74
2024/02/06 10:21:40;;;;;;;6.00;3.40;;;;;;;9.33;100.00;98425.41;109397;1253;67373;-75
2024/02/06 10:24:08;;;;;;;8.20;4.00;;;;;;;9.29;100.00;98426.77;109142;1253;61363;-75
2024/02/06 10:26:35;;;;;;;7.20;4.40;;;;;;;9.31;100.00;98415.77;109384;1253;65133;-75
2024/02/06 10:29:11;;;;;;;7.10;3.90;;;;;;;9.38;100.00;98401.06;109376;1253;59310;-75
2024/02/06 10:31:37;;;;;;;8.00;3.80;;;;;;;9.48;100.00;98396.51;109140;1253;59137;-74
2024/02/06 10:34:11;;;;;;;9.70;5.30;;;;;;;9.56;100.00;98405.11;109371;1254;66015;-75
2024/02/06 10:36:39;;;;;;;12.00;4.30;;;;;;;9.65;100.00;98404.81;109284;1254;59079;-75
2024/02/06 10:39:09;;;;;;;7.10;3.80;;;;;;;9.73;100.00;98402.51;109358;1254;65024;-73
2024/02/06 10:41:36;;;;;;;12.20;3.80;;;;;;;9.80;100.00;98394.88;109229;1254;59333;-72
2024/02/06 10:44:12;;;;;;;8.30;4.00;;;;;;;9.82;100.00;98388.69;109432;1253;59137;-75
2024/02/06 10:46:39;;;;;;;8.70;5.00;;;;;;;9.80;100.00;98381.71;109380;1254;66996;-76
2024/02/06 10:49:06;;;;;;;8.50;4.40;;;;;;;9.79;100.00;98381.60;109425;1255;60792;-75
2024/02/06 10:51:33;;;;;;;11.50;5.80;;;;;;;9.80;100.00;98378.91;109408;1254;65210;-77
2024/02/06 10:54:00;;;;;;;11.30;5.00;;;;;;;9.84;100.00;98370.80;109244;1254;59098;-76
2024/02/06 10:56:29;;;;;;;8.90;5.20;;;;;;;9.94;100.00;98365.45;109393;1254;60664;-76
2024/02/06 10:58:57;;;;;;;11.80;6.80;;;;;;;10.05;100.00;98372.58;109408;1253;67101;-74
2024/02/06 11:01:34;;;;;;;11.70;5.40;;;;;;;10.16;100.00;98376.07;109377;1253;61013;-75
2024/02/06 11:04:05;;;;;;;9.70;5.40;;;;;;;10.25;100.00;98375.91;109452;1253;65102;-74
2024/02/06 11:06:42;;;;;;;9.10;4.60;;;;;;;10.25;100.00;98373.19;109490;1253;58899;-75
2024/02/06 11:09:11;;;;;;;8.30;4.70;;;;;;;10.22;100.00;98373.09;109469;1253;59054;-73
2024/02/06 11:11:39;;;;;;;7.20;3.60;;;;;;;10.17;100.00;98376.16;109385;1253;64466;-74
2024/02/06 11:14:09;;;;;;;8.50;3.80;;;;;;;10.10;100.00;98380.94;109305;1253;59414;-77
2024/02/06 11:16:44;;;;;;;5.40;3.60;;;;;;;10.06;100.00;98372.90;109294;1253;65078;-75
2024/02/06 11:19:35;;;;;;;9.30;3.40;;;;;;;10.01;100.00;98373.95;109392;1253;58989;-76
2024/02/06 11:22:23;;;;;;;6.90;4.20;;;;;;;9.96;100.00;98372.42;109295;1253;59247;-76
2024/02/06 11:24:52;;;;;;;9.60;3.70;;;;;;;9.91;100.00;98369.72;109378;1253;67300;-75